Time;durP1;ratioP1;P1;durP2;ratioP2;P2;SDS_P1;SDS_P2;PMS_P1;PMS_P2;Temp;Humidity;BMP_temperature;BMP_pressure;BME280_temperature;BME280_humidity;BME280_pressure;Samples;Min_cycle;Max_cycle;Signal;HPM_P1;HPM_P2
2022/03/12 00:04:00;;;;;;;9.23;5.00;;;;;;;3.70;59.18;101405.84;10212312;29;20035;-90
2022/03/12 00:09:00;;;;;;;8.25;5.05;;;;;;;3.63;58.77;101421.25;10195800;29;20058;-90
2022/03/12 00:14:03;;;;;;;9.75;5.53;;;;;;;3.61;59.77;101404.25;10170949;29;20024;-90
2022/03/12 00:19:05;;;;;;;9.68;5.13;;;;;;;3.69;59.12;101416.91;10175160;29;20079;-90
2022/03/12 00:24:06;;;;;;;7.32;4.47;;;;;;;3.81;58.94;101446.13;10210830;29;20524;-90
2022/03/12 00:29:14;;;;;;;9.60;5.20;;;;;;;3.38;59.19;101369.09;10208807;29;20411;-90
2022/03/12 00:34:14;;;;;;;8.82;4.70;;;;;;;3.51;59.34;101385.53;10210888;29;20030;-90
2022/03/12 00:39:15;;;;;;;8.27;4.43;;;;;;;3.62;58.16;101403.25;10193719;29;20487;-90
2022/03/12 00:44:19;;;;;;;10.48;5.53;;;;;;;3.39;59.36;101370.75;10193526;29;20059;-90
2022/03/12 00:49:19;;;;;;;17.98;5.60;;;;;;;3.71;59.31;101445.63;10194232;29;20447;-90
2022/03/12 00:54:20;;;;;;;11.90;4.63;;;;;;;2.95;58.75;101342.69;10208868;29;20031;-90
2022/03/12 00:59:20;;;;;;;12.90;4.95;;;;;;;3.33;59.12;101385.13;10207800;29;20057;-90
2022/03/12 01:04:21;;;;;;;12.88;5.43;;;;;;;3.83;59.07;101482.19;10208503;28;20460;-90
2022/03/12 01:09:21;;;;;;;10.63;5.38;;;;;;;3.23;58.80;101371.88;10193281;29;20023;-89
2022/03/12 01:14:22;;;;;;;8.98;4.47;;;;;;;3.32;59.37;101378.03;10224160;29;20035;-90
2022/03/12 01:19:22;;;;;;;10.18;5.15;;;;;;;3.01;59.12;101333.75;10208657;29;20031;-90
2022/03/12 01:24:23;;;;;;;11.15;5.05;;;;;;;3.36;59.22;101376.59;10192103;29;20078;-90
2022/03/12 01:29:24;;;;;;;11.65;5.15;;;;;;;3.35;58.65;101392.09;10207508;29;20139;-90
2022/03/12 01:34:25;;;;;;;12.60;6.03;;;;;;;3.40;58.66;101410.56;10223162;29;20031;-90
2022/03/12 01:39:26;;;;;;;7.80;4.82;;;;;;;3.43;58.82;101397.41;10206024;29;20031;-90
2022/03/12 01:44:26;;;;;;;9.88;4.85;;;;;;;3.29;58.44;101381.97;10206899;29;20047;-90
2022/03/12 01:49:26;;;;;;;10.23;5.38;;;;;;;3.44;59.00;101422.75;10190782;29;20055;-90
2022/03/12 01:54:28;;;;;;;11.07;5.80;;;;;;;3.42;58.27;101409.31;10191022;29;20495;-90
2022/03/12 01:59:29;;;;;;;10.50;5.25;;;;;;;3.69;58.67;101455.88;10190455;29;20038;-90
2022/03/12 02:04:29;;;;;;;7.82;4.97;;;;;;;3.62;58.18;101438.63;10205926;29;20036;-90
2022/03/12 02:09:30;;;;;;;10.57;5.80;;;;;;;3.59;57.96;101436.28;10206175;29;20062;-90
2022/03/12 02:14:31;;;;;;;11.73;5.40;;;;;;;3.53;59.24;101435.19;10205218;29;20472;-90
2022/03/12 02:19:31;;;;;;;8.38;4.50;;;;;;;3.32;58.94;101397.91;10205991;29;20043;-90
2022/03/12 02:24:34;;;;;;;10.35;4.60;;;;;;;3.07;58.78;101372.13;10204681;29;20045;-90
2022/03/12 02:29:35;;;;;;;14.88;5.00;;;;;;;3.01;59.57;101352.78;10205286;29;20369;-90
2022/03/12 02:34:41;;;;;;;9.85;4.80;;;;;;;3.10;59.16;101377.16;10204674;29;20035;-90
2022/03/12 02:39:41;;;;;;;9.57;4.80;;;;;;;3.50;58.73;101429.31;10205534;29;20121;-90
2022/03/12 02:44:43;;;;;;;11.90;5.53;;;;;;;3.23;59.36;101397.19;10204649;29;20420;-89
2022/03/12 02:49:47;;;;;;;7.63;4.50;;;;;;;3.62;59.32;101463.16;10166428;29;20143;-89
2022/03/12 02:54:49;;;;;;;13.70;5.22;;;;;;;3.12;59.02;101388.69;10196565;29;20496;-90
2022/03/12 02:59:50;;;;;;;8.52;4.70;;;;;;;3.49;59.59;101479.31;10180823;29;20036;-90
2022/03/12 03:04:51;;;;;;;8.27;4.60;;;;;;;3.08;59.74;101396.41;10181462;29;20524;-90
2022/03/12 03:09:51;;;;;;;8.50;4.95;;;;;;;2.86;59.37;101376.47;10180321;29;20043;-90
2022/03/12 03:14:52;;;;;;;11.90;4.97;;;;;;;2.92;59.63;101375.72;10180615;29;20039;-90
2022/03/12 03:19:52;;;;;;;8.75;5.28;;;;;;;3.28;60.07;101463.81;10179931;29;20036;-90
2022/03/12 03:24:53;;;;;;;9.00;4.38;;;;;;;3.03;59.44;101421.44;10180034;29;20160;-90
2022/03/12 03:29:53;;;;;;;9.30;4.80;;;;;;;3.27;59.22;101454.81;10183850;29;20122;-90
2022/03/12 03:34:54;;;;;;;11.88;4.47;;;;;;;2.97;59.80;101411.34;10172254;29;20040;-90
2022/03/12 03:39:54;;;;;;;9.40;4.22;;;;;;;3.40;60.16;101509.38;10171240;29;20373;-90
2022/03/12 03:44:59;;;;;;;9.45;4.55;;;;;;;2.90;60.06;101410.41;10186863;29;20059;-89
2022/03/12 03:50:00;;;;;;;8.57;4.80;;;;;;;2.98;60.36;101429.34;10203219;29;20107;-90
2022/03/12 03:55:01;;;;;;;7.10;4.38;;;;;;;2.95;60.52;101451.47;10171400;29;20175;-90
2022/03/12 04:00:03;;;;;;;12.57;5.43;;;;;;;3.25;60.41;101494.13;10201686;29;20441;-90
2022/03/12 04:05:04;;;;;;;8.75;3.88;;;;;;;3.28;59.66;101507.34;10170915;29;20035;-89
2022/03/12 04:10:05;;;;;;;8.73;4.13;;;;;;;2.85;59.61;101442.75;10202154;29;20036;-90
2022/03/12 04:15:06;;;;;;;9.90;3.85;;;;;;;3.02;59.51;101482.34;10186620;29;20484;-90
2022/03/12 04:20:08;;;;;;;10.43;5.00;;;;;;;2.62;59.24;101402.97;10202351;29;20031;-90
2022/03/12 04:25:12;;;;;;;7.65;4.70;;;;;;;3.27;59.58;101532.88;10201690;29;20032;-90
2022/03/12 04:30:14;;;;;;;7.88;4.35;;;;;;;3.18;59.75;101519.38;10199891;29;20090;-89
2022/03/12 04:35:16;;;;;;;7.50;4.13;;;;;;;3.10;59.99;101507.75;10201164;29;20038;-90
2022/03/12 04:40:20;;;;;;;8.48;4.40;;;;;;;2.83;59.26;101456.56;10199071;29;20035;-89
2022/03/12 04:45:23;;;;;;;8.50;4.15;;;;;;;2.61;59.62;101444.75;10185664;29;20547;-89
2022/03/12 04:50:24;;;;;;;9.13;4.78;;;;;;;2.14;60.67;101399.75;10202215;29;20074;-90
2022/03/12 04:55:26;;;;;;;10.70;4.63;;;;;;;2.65;59.88;101510.50;10184441;29;20126;-90
2022/03/12 05:00:29;;;;;;;7.78;4.75;;;;;;;1.77;61.16;101385.19;10168878;29;20033;-90
2022/03/12 05:05:29;;;;;;;7.75;4.85;;;;;;;1.77;61.63;101420.47;10169424;29;20019;-90
2022/03/12 05:10:30;;;;;;;6.75;4.20;;;;;;;1.92;62.04;101454.97;10184899;29;20468;-90
2022/03/12 05:15:38;;;;;;;8.70;4.07;;;;;;;1.84;62.74;101480.34;10184605;29;20055;-90
2022/03/12 05:20:46;;;;;;;7.38;4.43;;;;;;;2.25;63.21;101579.66;10185797;29;20027;-90
2022/03/12 05:25:47;;;;;;;8.98;4.07;;;;;;;1.69;63.94;101509.28;10169802;29;20027;-90
2022/03/12 05:30:48;;;;;;;10.10;4.25;;;;;;;1.46;64.43;101495.69;10184529;29;20120;-90
2022/03/12 05:35:54;;;;;;;9.63;4.32;;;;;;;1.57;64.72;101527.84;10183681;29;20233;-90
2022/03/12 05:40:55;;;;;;;11.02;4.68;;;;;;;1.28;65.43;101507.69;10184386;29;20031;-90
2022/03/12 05:45:56;;;;;;;6.75;3.38;;;;;;;1.49;65.83;101576.72;10184328;29;20484;-90
2022/03/12 05:50:57;;;;;;;8.98;4.25;;;;;;;1.14;66.15;101505.72;10166201;29;20048;-90
2022/03/12 05:55:58;;;;;;;8.00;4.22;;;;;;;0.69;66.07;101444.91;10198817;29;20046;-90
2022/03/12 06:00:58;;;;;;;7.63;3.88;;;;;;;0.91;66.42;101498.34;10150020;29;20039;-90
2022/03/12 06:05:59;;;;;;;7.55;4.13;;;;;;;0.86;66.59;101503.44;10166785;29;20024;-90
2022/03/12 06:11:00;;;;;;;6.80;4.15;;;;;;;1.11;66.33;101528.59;10198304;29;20465;-90
2022/03/12 06:16:02;;;;;;;7.97;4.30;;;;;;;1.51;66.89;101604.53;10144809;29;20034;-90
2022/03/12 06:21:04;;;;;;;6.78;4.03;;;;;;;1.18;66.96;101542.31;10158757;29;20039;-90
2022/03/12 06:26:15;;;;;;;6.18;3.45;;;;;;;1.16;66.79;101547.91;10143078;29;20130;-89
2022/03/12 06:31:16;;;;;;;6.00;4.10;;;;;;;1.62;67.07;101596.03;10162294;29;20418;-89
2022/03/12 06:36:16;;;;;;;8.70;3.88;;;;;;;1.45;66.90;101531.97;10165453;29;20031;-90
2022/03/12 06:41:20;;;;;;;7.70;4.20;;;;;;;2.05;66.95;101601.88;10173413;29;20468;-90
2022/03/12 06:46:20;;;;;;;7.85;3.80;;;;;;;2.38;66.64;101616.06;10159793;29;20036;-89
2022/03/12 06:51:21;;;;;;;7.07;3.88;;;;;;;2.03;66.25;101544.19;10158019;29;20138;-89
2022/03/12 06:56:22;;;;;;;6.50;3.83;;;;;;;2.07;65.91;101529.22;10190784;29;20044;-91
2022/03/12 07:01:22;;;;;;;5.55;3.50;;;;;;;1.98;64.99;101516.69;10166092;29;20074;-90
2022/03/12 07:06:23;;;;;;;7.00;3.80;;;;;;;2.82;65.19;101647.13;10190759;29;20027;-89
2022/03/12 07:11:23;;;;;;;9.95;3.83;;;;;;;2.30;63.80;101536.50;10181763;29;20519;-90
2022/03/12 07:16:24;;;;;;;7.63;3.83;;;;;;;2.63;63.22;101577.78;10164424;29;20032;-90
2022/03/12 07:21:24;;;;;;;9.50;5.03;;;;;;;2.46;62.82;101517.31;10153142;29;20039;-90
2022/03/12 07:26:25;;;;;;;6.75;3.60;;;;;;;2.57;62.28;101508.69;10162123;29;20076;-90
2022/03/12 07:31:26;;;;;;;6.18;3.80;;;;;;;3.19;62.95;101566.47;10196081;29;20032;-90
2022/03/12 07:36:26;;;;;;;7.13;3.60;;;;;;;3.27;62.80;101576.44;10195921;29;20361;-89
2022/03/12 07:41:27;;;;;;;9.27;4.85;;;;;;;3.13;62.63;101499.22;10180150;29;20036;-90
2022/03/12 07:46:28;;;;;;;11.95;5.28;;;;;;;3.70;61.91;101544.72;10179786;29;20547;-90
2022/03/12 07:51:28;;;;;;;6.95;3.70;;;;;;;4.16;62.19;101604.28;10164185;29;20052;-90
2022/03/12 07:56:29;;;;;;;8.77;4.00;;;;;;;4.24;62.34;101579.63;10164006;29;20134;-90
2022/03/12 08:01:29;;;;;;;8.23;4.03;;;;;;;4.07;60.31;101561.84;10211240;29;20031;-90
2022/03/12 08:06:31;;;;;;;8.77;4.68;;;;;;;3.85;61.36;101550.09;10180315;29;20052;-91
2022/03/12 08:11:32;;;;;;;7.00;4.75;;;;;;;3.95;62.33;101560.66;10164150;29;20397;-90
2022/03/12 08:16:33;;;;;;;10.13;4.47;;;;;;;4.59;62.02;101666.16;10198958;29;20052;-90
2022/03/12 08:21:34;;;;;;;7.75;4.50;;;;;;;4.58;62.19;101621.66;10203328;29;20031;-91
2022/03/12 08:26:35;;;;;;;9.05;4.75;;;;;;;4.59;62.70;101562.53;10172049;29;20050;-89
2022/03/12 08:31:36;;;;;;;9.10;4.70;;;;;;;4.87;61.11;101531.66;10202552;29;20102;-90
2022/03/12 08:36:36;;;;;;;13.90;5.50;;;;;;;5.64;60.41;101582.44;10212369;29;20027;-91
2022/03/12 08:41:38;;;;;;;8.98;4.70;;;;;;;5.93;58.92;101574.97;10193510;29;20027;-91
2022/03/12 08:46:42;;;;;;;7.95;5.25;;;;;;;6.00;59.24;101568.50;10195151;29;20112;-91
2022/03/12 08:51:43;;;;;;;8.40;5.22;;;;;;;6.10;59.99;101553.56;10204016;29;20055;-91
2022/03/12 08:56:44;;;;;;;9.85;5.32;;;;;;;6.59;60.11;101599.69;10210870;29;20086;-91
2022/03/12 09:01:45;;;;;;;8.18;4.78;;;;;;;6.57;58.81;101560.75;10187701;29;20563;-91
2022/03/12 09:06:47;;;;;;;8.95;5.60;;;;;;;7.02;59.32;101623.88;10197411;29;20050;-91
2022/03/12 09:11:47;;;;;;;8.23;5.13;;;;;;;7.37;58.03;101637.31;10172087;29;20445;-91
2022/03/12 09:16:48;;;;;;;10.45;5.40;;;;;;;7.48;58.73;101594.72;10178720;29;20055;-90
2022/03/12 09:21:48;;;;;;;10.63;5.90;;;;;;;7.93;56.68;101608.44;10200241;29;20047;-90
2022/03/12 09:26:49;;;;;;;9.57;5.72;;;;;;;8.18;57.52;101608.50;10204281;29;20039;-91
2022/03/12 09:31:49;;;;;;;11.38;5.35;;;;;;;8.58;57.91;101627.50;10180988;29;20051;-91
2022/03/12 09:36:50;;;;;;;9.45;5.65;;;;;;;8.56;58.31;101568.38;10201521;29;20050;-91
2022/03/12 09:41:51;;;;;;;11.27;7.03;;;;;;;8.79;57.75;101534.81;10159944;29;20055;-89
2022/03/12 09:46:51;;;;;;;14.82;8.98;;;;;;;9.52;58.27;101591.69;10190257;29;20161;-90
2022/03/12 09:51:52;;;;;;;13.65;6.85;;;;;;;9.64;57.20;101589.88;10196411;29;20091;-89
2022/03/12 09:56:52;;;;;;;11.77;5.90;;;;;;;10.01;59.13;101602.72;10159044;29;20043;-89
2022/03/12 10:01:54;;;;;;;9.80;6.13;;;;;;;10.45;57.82;101648.25;10180716;29;20071;-89
2022/03/12 10:06:56;;;;;;;11.10;6.03;;;;;;;10.30;59.42;101581.81;10163338;29;20024;-89
2022/03/12 10:11:58;;;;;;;9.18;5.63;;;;;;;10.59;59.57;101580.06;10199703;29;20032;-89
2022/03/12 10:17:02;;;;;;;12.65;5.88;;;;;;;10.47;59.92;101585.53;10181676;29;20138;-89
2022/03/12 10:22:05;;;;;;;11.23;5.93;;;;;;;11.05;59.90;101652.78;10183183;29;20027;-89
2022/03/12 10:27:07;;;;;;;10.25;6.10;;;;;;;11.42;60.73;101607.63;10165524;29;20027;-89
2022/03/12 10:32:27;;;;;;;11.30;6.25;;;;;;;12.18;62.36;101698.66;10197633;29;20028;-90
2022/03/12 10:37:30;;;;;;;9.13;5.38;;;;;;;11.84;61.65;101638.56;10197156;29;20428;-90
2022/03/12 10:42:32;;;;;;;8.80;6.30;;;;;;;12.06;63.70;101640.72;10181827;29;20046;-91
2022/03/12 10:47:36;;;;;;;9.32;5.60;;;;;;;12.10;64.83;101622.56;10167029;29;20086;-89
2022/03/12 10:52:40;;;;;;;11.43;6.20;;;;;;;12.65;64.40;101641.25;10205942;29;20106;-90
2022/03/12 10:58:13;;;;;;;8.95;6.22;;;;;;;13.51;64.00;101684.41;10164956;29;20083;-88
2022/03/12 11:03:16;;;;;;;10.52;6.47;;;;;;;13.51;63.08;101640.97;10217188;29;20550;-90
2022/03/12 11:08:21;;;;;;;10.65;6.10;;;;;;;13.74;63.09;101683.34;10204743;29;20435;-88
2022/03/12 11:13:50;;;;;;;10.07;6.30;;;;;;;14.01;62.65;101693.66;10202364;29;20035;-89
2022/03/12 11:18:50;;;;;;;9.45;6.25;;;;;;;14.20;62.30;101696.94;10217488;29;20040;-89
2022/03/12 11:23:51;;;;;;;8.30;5.95;;;;;;;13.88;62.53;101632.03;10236864;29;20480;-89
2022/03/12 11:28:56;;;;;;;10.95;6.47;;;;;;;13.94;62.62;101616.34;10201609;29;20031;-90
2022/03/12 11:33:57;;;;;;;12.52;6.10;;;;;;;14.73;61.33;101698.94;10196159;29;20031;-90
2022/03/12 11:38:57;;;;;;;11.23;6.75;;;;;;;14.81;61.77;101682.94;10232220;29;20037;-91
2022/03/12 11:43:58;;;;;;;12.18;6.18;;;;;;;14.75;61.74;101648.78;10197137;29;20387;-89
2022/03/12 11:48:59;;;;;;;10.68;6.30;;;;;;;14.87;61.72;101623.66;10199286;28;20086;-89
2022/03/12 11:54:00;;;;;;;12.00;6.45;;;;;;;15.01;60.50;101597.16;10212539;29;20030;-91
2022/03/12 11:59:01;;;;;;;8.95;6.95;;;;;;;15.19;60.27;101598.63;10203647;29;20039;-88
2022/03/12 12:04:02;;;;;;;11.30;6.75;;;;;;;15.77;61.97;101701.41;10171285;29;20387;-89
2022/03/12 12:09:03;;;;;;;10.73;5.70;;;;;;;15.94;61.63;101671.53;10200379;29;20047;-88
2022/03/12 12:14:03;;;;;;;9.82;6.43;;;;;;;16.37;60.04;101690.00;10169761;29;20461;-89
2022/03/12 12:19:04;;;;;;;12.82;6.53;;;;;;;16.71;58.79;101626.41;10221582;29;20534;-89
2022/03/12 12:24:24;;;;;;;10.05;7.00;;;;;;;17.74;57.07;101685.59;10208098;29;20069;-89
2022/03/12 12:29:54;;;;;;;9.82;7.32;;;;;;;18.12;55.76;101630.31;10169832;29;20031;-88
2022/03/12 12:35:04;;;;;;;11.77;7.47;;;;;;;18.89;55.41;101666.06;10226096;29;20063;-88
2022/03/12 12:40:17;;;;;;;9.00;7.00;;;;;;;18.93;55.47;101655.97;10224121;29;20499;-89
2022/03/12 12:45:23;;;;;;;11.30;6.35;;;;;;;17.58;56.48;101637.47;10212664;29;20372;-89
2022/03/12 12:50:24;;;;;;;8.38;5.97;;;;;;;16.90;59.54;101699.03;10203758;29;20119;-88
2022/03/12 12:55:25;;;;;;;9.70;5.38;;;;;;;16.94;60.71;101661.22;10193801;29;20031;-88
2022/03/12 13:00:34;;;;;;;7.93;5.45;;;;;;;17.88;60.19;101688.63;10222689;28;20127;-88
2022/03/12 13:05:54;;;;;;;10.10;6.55;;;;;;;17.58;58.83;101619.94;10274994;28;20052;-90
2022/03/12 13:10:55;;;;;;;11.27;6.53;;;;;;;17.62;59.15;101630.22;10230737;28;20446;-91
2022/03/12 13:15:56;;;;;;;22.73;8.45;;;;;;;16.47;59.66;101564.97;10191058;29;20043;-87
2022/03/12 13:20:57;;;;;;;8.55;6.18;;;;;;;16.28;60.88;101598.84;10222642;29;20032;-88
2022/03/12 13:25:58;;;;;;;12.15;6.88;;;;;;;15.51;61.86;101572.75;10205449;29;20110;-90
2022/03/12 13:30:59;;;;;;;11.15;6.45;;;;;;;14.95;64.20;101581.59;10205176;29;20031;-87
2022/03/12 13:35:59;;;;;;;8.70;5.93;;;;;;;14.45;65.07;101605.81;10205809;29;20055;-87
2022/03/12 13:41:00;;;;;;;12.48;7.00;;;;;;;14.20;66.84;101581.47;10189962;29;20027;-87
2022/03/12 13:46:01;;;;;;;9.90;6.13;;;;;;;14.09;67.38;101593.53;10184305;29;20102;-87
2022/03/12 13:51:02;;;;;;;8.32;6.43;;;;;;;14.49;68.20;101689.22;10236740;29;20412;-87
2022/03/12 13:56:10;;;;;;;10.25;6.38;;;;;;;14.09;67.48;101626.75;10189505;29;20043;-89
2022/03/12 14:01:11;;;;;;;17.17;6.70;;;;;;;14.81;66.60;101635.81;10191371;29;20121;-88
2022/03/12 14:06:47;;;;;;;15.35;6.03;;;;;;;15.49;64.84;101649.88;10191626;29;20051;-90
2022/03/12 14:11:59;;;;;;;9.73;6.05;;;;;;;15.34;63.56;101570.19;10099082;29;20035;-88
2022/03/12 14:17:01;;;;;;;10.82;5.72;;;;;;;15.75;62.04;101625.91;10197505;29;20453;-89
2022/03/12 14:22:02;;;;;;;9.25;6.25;;;;;;;15.73;63.08;101595.63;10198049;29;20031;-88
2022/03/12 14:27:06;;;;;;;10.02;6.40;;;;;;;16.12;63.48;101703.56;10218203;29;20119;-90
2022/03/12 14:32:10;;;;;;;8.25;5.57;;;;;;;15.72;63.13;101630.03;10216427;29;20086;-89
2022/03/12 14:37:11;;;;;;;9.77;6.07;;;;;;;16.74;63.36;101611.94;10189984;29;20393;-89
2022/03/12 14:42:11;;;;;;;9.38;6.13;;;;;;;16.62;61.53;101595.56;10179760;29;20465;-89
2022/03/12 14:47:12;;;;;;;9.63;7.00;;;;;;;16.14;58.92;101600.47;10195476;29;20019;-89
2022/03/12 14:52:20;;;;;;;12.65;8.95;;;;;;;16.03;59.72;101607.94;10188666;29;20058;-89
2022/03/12 14:57:22;;;;;;;12.32;8.45;;;;;;;15.28;59.88;101594.28;10218892;29;20045;-88
2022/03/12 15:02:30;;;;;;;11.32;7.57;;;;;;;15.25;62.17;101630.03;10179150;29;20063;-88
2022/03/12 15:07:47;;;;;;;16.23;9.02;;;;;;;15.23;62.14;101654.44;10195061;29;20122;-88
2022/03/12 15:12:47;;;;;;;13.07;9.05;;;;;;;15.88;63.01;101692.03;10204151;29;20035;-88
2022/03/12 15:17:57;;;;;;;10.77;8.60;;;;;;;15.20;62.59;101616.13;10220095;29;20027;-88
2022/03/12 15:23:06;;;;;;;12.18;8.57;;;;;;;14.77;63.35;101601.41;10203229;29;20070;-89
2022/03/12 15:28:08;;;;;;;11.88;8.23;;;;;;;14.80;64.28;101650.75;10210724;29;20117;-88
2022/03/12 15:33:09;;;;;;;10.07;7.68;;;;;;;14.59;64.21;101667.19;10211007;29;20027;-88
2022/03/12 15:38:11;;;;;;;11.82;7.45;;;;;;;13.62;64.83;101570.03;10199810;29;20108;-88
2022/03/12 15:43:12;;;;;;;11.73;8.25;;;;;;;13.69;66.13;101630.69;10186791;29;20472;-88
2022/03/12 15:48:12;;;;;;;14.32;7.80;;;;;;;13.29;67.24;101620.72;10177218;28;20023;-88
2022/03/12 15:53:13;;;;;;;12.88;7.85;;;;;;;13.09;66.72;101615.72;10209891;29;20384;-88
2022/03/12 15:58:14;;;;;;;13.88;8.20;;;;;;;13.04;67.04;101622.00;10209417;29;20093;-88
2022/03/12 16:03:15;;;;;;;14.52;8.52;;;;;;;12.84;67.54;101638.25;10225570;29;20135;-89
2022/03/12 16:08:16;;;;;;;15.00;8.55;;;;;;;12.62;69.28;101658.31;10225145;29;20154;-89
2022/03/12 16:13:16;;;;;;;13.15;8.30;;;;;;;12.83;69.41;101719.47;10195016;29;20027;-88
2022/03/12 16:18:18;;;;;;;14.98;8.23;;;;;;;12.21;70.34;101643.75;10169938;29;20079;-88
2022/03/12 16:23:22;;;;;;;12.43;8.65;;;;;;;12.08;71.77;101653.16;10169466;29;20361;-89
2022/03/12 16:28:22;;;;;;;13.40;8.77;;;;;;;11.50;71.98;101574.16;10212368;29;20050;-88
2022/03/12 16:33:26;;;;;;;13.48;8.20;;;;;;;11.37;72.65;101600.06;10169116;29;20469;-88
2022/03/12 16:38:26;;;;;;;12.90;8.20;;;;;;;11.83;73.32;101667.25;10189057;29;20031;-88
2022/03/12 16:43:27;;;;;;;15.32;8.05;;;;;;;11.55;73.69;101651.47;10193761;29;20039;-88
2022/03/12 16:48:35;;;;;;;17.95;8.85;;;;;;;11.42;74.44;101663.59;10180783;28;20035;-88
2022/03/12 16:53:36;;;;;;;13.32;8.10;;;;;;;10.94;75.28;101595.78;10264987;28;20093;-88
2022/03/12 16:58:36;;;;;;;15.88;8.70;;;;;;;10.66;76.65;101572.50;10260781;28;20051;-88
2022/03/12 17:03:37;;;;;;;15.38;9.05;;;;;;;10.58;77.67;101594.06;10191654;29;20138;-88
2022/03/12 17:08:37;;;;;;;11.55;8.65;;;;;;;10.41;78.95;101603.00;10190833;29;20059;-88
2022/03/12 17:13:38;;;;;;;19.58;8.85;;;;;;;10.64;80.95;101678.47;10191335;29;20093;-88
2022/03/12 17:18:42;;;;;;;13.90;8.85;;;;;;;9.96;82.67;101599.81;10191233;29;20083;-87
2022/03/12 17:23:44;;;;;;;12.80;9.20;;;;;;;9.78;84.29;101601.53;10197654;29;20023;-88
2022/03/12 17:28:45;;;;;;;13.52;9.00;;;;;;;9.74;86.16;101638.00;10204338;29;20118;-84
2022/03/12 17:33:46;;;;;;;11.43;8.25;;;;;;;9.47;87.91;101630.88;10216649;29;20114;-88
2022/03/12 17:38:46;;;;;;;12.48;8.30;;;;;;;9.65;88.80;101662.19;10191350;29;20368;-90
2022/03/12 17:43:49;;;;;;;15.95;8.68;;;;;;;9.58;89.64;101686.16;10206157;28;20118;-88
2022/03/12 17:48:49;;;;;;;14.38;8.50;;;;;;;9.12;91.38;101607.81;10214169;28;20050;-90
2022/03/12 17:53:51;;;;;;;13.55;8.80;;;;;;;8.67;91.55;101551.19;10213839;28;20057;-87
2022/03/12 17:58:53;;;;;;;12.52;9.05;;;;;;;8.67;93.55;101593.19;10206907;29;20047;-89
2022/03/12 18:03:57;;;;;;;15.23;8.88;;;;;;;9.26;95.51;101700.84;10222832;29;20033;-88
2022/03/12 18:08:58;;;;;;;16.40;9.55;;;;;;;8.48;96.43;101610.66;10221751;29;20471;-89
2022/03/12 18:13:58;;;;;;;13.80;8.80;;;;;;;8.64;97.03;101659.53;10204945;29;20082;-88
2022/03/12 18:19:04;;;;;;;14.95;10.25;;;;;;;7.85;98.69;101551.13;10189452;29;20034;-88
2022/03/12 18:24:08;;;;;;;18.08;10.55;;;;;;;7.73;100.00;101547.38;10191018;29;20019;-88
2022/03/12 18:29:08;;;;;;;16.15;9.90;;;;;;;8.08;100.00;101635.56;10221591;29;20031;-89
2022/03/12 18:34:09;;;;;;;15.60;9.85;;;;;;;7.41;100.00;101518.03;10221374;29;20027;-89
2022/03/12 18:39:11;;;;;;;17.25;10.25;;;;;;;7.36;100.00;101553.47;10220990;29;20071;-88
2022/03/12 18:44:13;;;;;;;13.68;8.63;;;;;;;7.84;100.00;101643.50;10196726;28;20122;-88
2022/03/12 18:49:14;;;;;;;16.40;8.95;;;;;;;7.24;100.00;101555.19;10229741;28;20340;-89
2022/03/12 18:54:15;;;;;;;13.13;8.95;;;;;;;6.93;100.00;101537.56;10233650;28;20081;-88
2022/03/12 18:59:16;;;;;;;14.35;9.10;;;;;;;7.08;100.00;101571.00;10234779;28;20078;-88
2022/03/12 19:04:16;;;;;;;14.25;9.05;;;;;;;7.21;100.00;101583.84;10236522;28;20079;-88
2022/03/12 19:09:17;;;;;;;13.88;8.82;;;;;;;7.31;100.00;101626.38;10244196;28;20065;-89
2022/03/12 19:14:17;;;;;;;13.77;9.00;;;;;;;7.70;100.00;101718.59;10223321;28;20023;-88
2022/03/12 19:19:18;;;;;;;14.57;9.38;;;;;;;6.83;100.00;101592.75;10211021;28;20051;-88
2022/03/12 19:24:19;;;;;;;16.10;9.82;;;;;;;6.97;100.00;101628.34;10222413;28;20019;-88
2022/03/12 19:29:21;;;;;;;17.88;10.18;;;;;;;6.57;100.00;101601.78;10190678;28;20023;-88
2022/03/12 19:34:22;;;;;;;22.05;10.18;;;;;;;6.63;100.00;101628.31;10222187;28;20113;-88
2022/03/12 19:39:22;;;;;;;20.10;10.95;;;;;;;6.79;100.00;101642.66;10183356;29;20194;-88
2022/03/12 19:44:23;;;;;;;14.73;10.13;;;;;;;6.67;100.00;101631.47;10217044;28;20523;-88
2022/03/12 19:49:23;;;;;;;20.80;9.95;;;;;;;6.75;100.00;101663.28;10200045;28;20403;-89
2022/03/12 19:54:24;;;;;;;16.00;10.35;;;;;;;6.93;100.00;101696.34;10227257;28;20030;-89
2022/03/12 19:59:25;;;;;;;16.77;10.57;;;;;;;6.71;100.00;101671.06;10216416;28;20446;-88
2022/03/12 20:04:26;;;;;;;15.30;11.10;;;;;;;6.17;100.00;101592.72;10213326;28;20046;-89
2022/03/12 20:09:27;;;;;;;19.35;10.80;;;;;;;6.09;100.00;101607.41;10192477;29;20031;-88
2022/03/12 20:14:27;;;;;;;14.77;10.85;;;;;;;6.11;100.00;101619.00;10191313;29;20126;-88
2022/03/12 20:19:29;;;;;;;17.15;10.85;;;;;;;5.67;100.00;101549.25;10224387;29;20054;-88
2022/03/12 20:24:30;;;;;;;16.75;10.82;;;;;;;5.73;100.00;101551.16;10224958;29;20043;-89
2022/03/12 20:29:31;;;;;;;15.07;10.73;;;;;;;5.65;100.00;101584.97;10214797;28;20090;-88
2022/03/12 20:34:33;;;;;;;16.67;11.35;;;;;;;6.21;100.00;101665.09;10229489;28;20062;-88
2022/03/12 20:39:33;;;;;;;18.65;11.18;;;;;;;5.80;100.00;101606.66;10198031;28;20039;-88
2022/03/12 20:44:34;;;;;;;19.55;11.48;;;;;;;5.70;100.00;101597.19;10223500;28;20592;-88
2022/03/12 20:49:34;;;;;;;18.15;10.10;;;;;;;5.63;100.00;101619.84;10225208;28;20051;-88
2022/03/12 20:54:35;;;;;;;18.67;10.88;;;;;;;5.41;100.00;101578.13;10187190;28;20384;-88
2022/03/12 20:59:35;;;;;;;15.88;10.40;;;;;;;5.64;100.00;101615.22;10225874;28;20046;-88
2022/03/12 21:04:37;;;;;;;16.85;10.75;;;;;;;5.28;100.00;101556.25;10220728;28;20129;-88
2022/03/12 21:09:37;;;;;;;15.93;10.00;;;;;;;6.13;100.00;101682.50;10233993;28;20081;-88
2022/03/12 21:14:38;;;;;;;16.77;10.45;;;;;;;5.43;100.00;101580.66;10207378;28;20178;-87
2022/03/12 21:19:39;;;;;;;15.85;10.07;;;;;;;5.55;100.00;101589.97;10204179;28;20487;-88
2022/03/12 21:24:39;;;;;;;16.42;10.02;;;;;;;5.88;100.00;101643.91;10217138;28;20053;-90
2022/03/12 21:29:40;;;;;;;16.45;10.55;;;;;;;5.65;100.00;101604.09;10200665;29;20038;-90
2022/03/12 21:34:47;;;;;;;17.05;10.98;;;;;;;5.42;100.00;101585.28;10219678;28;20063;-90
2022/03/12 21:39:49;;;;;;;16.00;10.73;;;;;;;5.39;100.00;101577.50;10210324;28;20027;-87
2022/03/12 21:44:50;;;;;;;14.90;10.55;;;;;;;5.59;100.00;101625.94;10198767;28;20102;-88
2022/03/12 21:49:50;;;;;;;18.73;10.15;;;;;;;5.35;100.00;101622.63;10214091;28;20051;-88
2022/03/12 21:54:51;;;;;;;16.70;10.55;;;;;;;4.76;100.00;101527.59;10183299;28;20036;-88
2022/03/12 21:59:52;;;;;;;15.90;9.90;;;;;;;5.05;100.00;101579.22;10207079;29;20043;-88
2022/03/12 22:04:52;;;;;;;17.85;10.27;;;;;;;5.11;100.00;101590.38;10213534;28;20026;-88
2022/03/12 22:09:53;;;;;;;16.95;9.93;;;;;;;4.90;100.00;101589.41;10202806;29;20102;-87
2022/03/12 22:14:53;;;;;;;17.73;10.70;;;;;;;4.61;100.00;101534.00;10185538;29;20035;-88
2022/03/12 22:19:54;;;;;;;16.63;10.45;;;;;;;5.35;100.00;101655.41;10189000;29;20023;-91
2022/03/12 22:24:54;;;;;;;17.27;9.95;;;;;;;5.04;100.00;101599.38;10205242;29;20050;-88
2022/03/12 22:29:55;;;;;;;17.65;10.02;;;;;;;4.88;100.00;101591.50;10217363;28;20114;-88
2022/03/12 22:34:55;;;;;;;18.70;11.05;;;;;;;4.31;100.00;101519.72;10208375;28;20035;-88
2022/03/12 22:39:57;;;;;;;15.63;10.15;;;;;;;4.77;100.00;101589.28;10189211;29;20019;-88
2022/03/12 22:44:58;;;;;;;15.40;9.25;;;;;;;3.72;100.00;101403.75;10203024;29;20023;-88
2022/03/12 22:49:58;;;;;;;16.38;10.00;;;;;;;4.15;100.00;101485.41;10180176;29;20075;-88
2022/03/12 22:55:00;;;;;;;15.18;9.68;;;;;;;4.36;100.00;101547.25;10164774;29;20122;-88
2022/03/12 23:00:00;;;;;;;17.58;10.55;;;;;;;4.09;100.00;101513.44;10165340;29;20035;-88
2022/03/12 23:10:20;;;;;;;19.27;9.75;;;;;;;4.07;100.00;101534.59;10208503;29;20043;-88